createdAt,value
2022-08-27T00:01:49.008Z,1.35
2022-08-27T00:04:16.231Z,1.35
2022-08-27T00:06:43.626Z,1.40
2022-08-27T00:09:13.360Z,1.48
2022-08-27T00:11:40.182Z,1.50
2022-08-27T00:14:25.736Z,0.88
2022-08-27T00:17:11.757Z,0.95
2022-08-27T00:20:17.979Z,1.30
2022-08-27T00:22:45.031Z,1.15
2022-08-27T00:25:14.080Z,1.17
2022-08-27T00:27:41.263Z,1.38
2022-08-27T00:30:12.999Z,1.40
2022-08-27T00:32:40.627Z,1.55
2022-08-27T00:35:08.522Z,1.38
2022-08-27T00:37:35.742Z,1.45
2022-08-27T00:40:04.364Z,1.77
2022-08-27T00:42:31.336Z,1.00
2022-08-27T00:44:59.746Z,1.20
2022-08-27T00:47:29.602Z,0.82
2022-08-27T00:50:19.950Z,1.40
2022-08-27T00:52:56.376Z,1.20
2022-08-27T00:55:30.585Z,1.02
2022-08-27T00:58:10.918Z,1.33
2022-08-27T01:03:26.200Z,1.27
2022-08-27T01:05:55.022Z,1.63
2022-08-27T01:08:24.402Z,1.40
2022-08-27T01:10:52.325Z,1.30
2022-08-27T01:13:22.361Z,1.30
2022-08-27T01:16:11.425Z,1.38
2022-08-27T01:18:39.497Z,1.02
2022-08-27T01:21:26.161Z,1.30
2022-08-27T01:24:23.274Z,1.17
2022-08-27T01:26:50.312Z,0.88
2022-08-27T01:29:18.156Z,1.38
2022-08-27T01:31:45.436Z,0.98
2022-08-27T01:34:12.387Z,0.90
2022-08-27T01:36:40.244Z,1.08
2022-08-27T01:39:07.097Z,1.10
2022-08-27T01:41:34.195Z,0.98
2022-08-27T01:44:01.094Z,1.10
2022-08-27T01:46:28.745Z,1.08
2022-08-27T01:48:56.400Z,1.13
2022-08-27T01:51:23.355Z,1.23
2022-08-27T01:53:50.641Z,1.10
2022-08-27T01:56:17.647Z,1.55
2022-08-27T01:58:47.244Z,1.42
2022-08-27T02:01:18.614Z,1.23
2022-08-27T02:03:47.443Z,1.17
2022-08-27T02:06:15.287Z,1.05
2022-08-27T02:11:44.979Z,1.48
2022-08-27T02:14:12.926Z,1.13
2022-08-27T02:16:41.302Z,0.95
2022-08-27T02:19:19.704Z,0.88
2022-08-27T02:21:47.464Z,1.08
2022-08-27T02:24:14.400Z,1.30
2022-08-27T02:26:41.615Z,0.90
2022-08-27T02:29:48.980Z,1.00
2022-08-27T02:32:35.318Z,1.30
2022-08-27T02:35:04.302Z,1.10
2022-08-27T02:37:31.831Z,0.80
2022-08-27T02:39:59.204Z,1.30
2022-08-27T02:42:26.163Z,1.23
2022-08-27T02:44:55.025Z,1.30
2022-08-27T02:47:21.896Z,1.73
2022-08-27T02:49:49.417Z,1.40
2022-08-27T02:52:35.069Z,1.55
2022-08-27T02:55:02.427Z,2.70
2022-08-27T02:57:29.252Z,1.80
2022-08-27T02:59:59.170Z,2.38
2022-08-27T03:02:26.145Z,2.42
2022-08-27T03:04:54.496Z,2.90
2022-08-27T03:07:24.348Z,2.47
2022-08-27T03:09:51.925Z,2.53
2022-08-27T03:12:38.766Z,1.88
2022-08-27T03:15:08.913Z,2.85
2022-08-27T03:17:54.622Z,2.70
2022-08-27T03:20:21.888Z,3.10
2022-08-27T03:22:49.180Z,3.00
2022-08-27T03:25:35.015Z,2.63
2022-08-27T03:28:02.392Z,3.45
2022-08-27T03:30:30.713Z,3.67
2022-08-27T03:32:58.788Z,3.80
2022-08-27T03:35:25.817Z,3.78
2022-08-27T03:38:11.718Z,3.30
2022-08-27T03:40:38.816Z,3.90
2022-08-27T03:43:06.481Z,4.00
2022-08-27T03:45:56.602Z,3.95
2022-08-27T03:48:20.859Z,3.22
2022-08-27T03:50:49.280Z,3.95
2022-08-27T03:53:20.348Z,3.53
2022-08-27T03:55:48.443Z,2.78
2022-08-27T03:58:16.933Z,3.50
2022-08-27T04:00:43.883Z,3.60
2022-08-27T04:03:13.296Z,3.42
2022-08-27T04:05:41.150Z,4.05
2022-08-27T04:08:10.055Z,3.15
2022-08-27T04:10:42.251Z,3.53
2022-08-27T04:13:09.194Z,3.90
2022-08-27T04:15:40.666Z,3.42
2022-08-27T04:18:08.246Z,3.60
2022-08-27T04:20:36.159Z,4.30
2022-08-27T04:23:04.869Z,3.58
2022-08-27T04:25:32.450Z,4.13
2022-08-27T04:27:59.336Z,3.88
2022-08-27T04:30:26.319Z,4.88
2022-08-27T04:32:53.239Z,4.25
2022-08-27T04:35:20.405Z,5.25
2022-08-27T04:37:47.393Z,5.72
2022-08-27T04:40:14.348Z,5.13
2022-08-27T04:42:42.410Z,6.70
2022-08-27T04:45:09.924Z,6.57
2022-08-27T04:47:37.262Z,7.15
2022-08-27T04:50:05.649Z,6.72
2022-08-27T04:52:33.900Z,6.57
2022-08-27T04:55:08.550Z,6.82
2022-08-27T04:57:37.950Z,7.47
2022-08-27T05:00:06.854Z,8.07
2022-08-27T05:02:33.674Z,7.85
2022-08-27T05:05:00.574Z,8.93
2022-08-27T05:07:27.896Z,9.20
2022-08-27T05:09:54.732Z,7.88
2022-08-27T05:12:25.709Z,7.60
2022-08-27T05:14:54.918Z,9.20
2022-08-27T05:17:40.457Z,7.90
2022-08-27T05:20:08.239Z,7.78
2022-08-27T05:22:35.428Z,7.53
2022-08-27T05:25:02.243Z,7.85
2022-08-27T05:27:29.068Z,8.63
2022-08-27T05:30:14.638Z,7.70
2022-08-27T05:32:41.796Z,7.88
2022-08-27T05:35:11.104Z,7.82
2022-08-27T05:37:40.850Z,8.57
2022-08-27T05:40:08.384Z,7.18
2022-08-27T05:43:32.242Z,8.05
2022-08-27T05:45:59.341Z,6.63
2022-08-27T05:48:26.458Z,8.82
2022-08-27T05:50:53.443Z,9.18
2022-08-27T05:53:21.062Z,9.23
2022-08-27T05:55:47.952Z,8.13
2022-08-27T05:58:33.470Z,8.38
2022-08-27T06:01:09.422Z,8.13
2022-08-27T06:03:40.466Z,8.48
2022-08-27T06:06:11.102Z,7.47
2022-08-27T06:08:38.904Z,7.95
2022-08-27T06:11:07.765Z,6.72
2022-08-27T06:13:35.908Z,4.70
2022-08-27T06:16:07.484Z,4.07
2022-08-27T06:18:36.192Z,5.18
2022-08-27T06:21:03.096Z,4.43
2022-08-27T06:23:30.550Z,4.82
2022-08-27T06:25:58.449Z,4.15
2022-08-27T06:28:31.428Z,4.55
2022-08-27T06:31:15.002Z,5.30
2022-08-27T06:33:42.953Z,4.22
2022-08-27T06:36:12.723Z,4.43
2022-08-27T06:38:39.936Z,4.03
2022-08-27T06:41:08.079Z,3.42
2022-08-27T06:43:44.215Z,5.32
2022-08-27T06:46:14.552Z,5.40
2022-08-27T06:48:44.951Z,5.30
2022-08-27T06:51:17.254Z,4.72
2022-08-27T06:53:47.129Z,5.07
2022-08-27T06:56:15.994Z,5.47
2022-08-27T06:58:43.850Z,5.30
2022-08-27T07:01:22.336Z,3.38
2022-08-27T07:03:49.599Z,3.10
2022-08-27T07:06:18.149Z,2.95
2022-08-27T07:08:53.009Z,2.58
2022-08-27T07:11:21.276Z,4.22
2022-08-27T07:13:49.272Z,5.88
2022-08-27T07:16:19.193Z,5.38
2022-08-27T07:18:49.715Z,5.90
2022-08-27T07:21:20.308Z,7.00
2022-08-27T07:23:48.862Z,8.77
2022-08-27T07:26:16.699Z,6.82
2022-08-27T07:28:44.523Z,7.47
2022-08-27T07:31:13.341Z,4.53
2022-08-27T07:33:46.252Z,6.57
2022-08-27T07:36:41.600Z,7.65
2022-08-27T07:39:09.244Z,7.18
2022-08-27T07:41:56.529Z,8.13
2022-08-27T07:44:31.139Z,7.95
2022-08-27T07:47:02.582Z,6.88
2022-08-27T07:49:30.217Z,10.60
2022-08-27T07:51:57.109Z,9.13
2022-08-27T07:54:25.366Z,9.10
2022-08-27T07:56:55.350Z,8.93
2022-08-27T07:59:24.861Z,9.00
2022-08-27T08:02:10.785Z,8.25
2022-08-27T08:04:56.153Z,9.70
2022-08-27T08:07:24.920Z,8.13
2022-08-27T08:09:51.811Z,9.13
2022-08-27T08:12:18.662Z,9.77
2022-08-27T08:15:12.378Z,7.93
2022-08-27T08:17:39.711Z,8.43
2022-08-27T08:20:21.690Z,8.50
2022-08-27T08:22:57.386Z,8.63
2022-08-27T08:25:24.246Z,9.50
2022-08-27T08:27:51.391Z,8.30
2022-08-27T08:30:18.414Z,9.63
2022-08-27T08:32:45.419Z,8.73
2022-08-27T08:35:13.152Z,9.48
2022-08-27T08:37:42.618Z,9.20
2022-08-27T08:40:11.226Z,7.22
2022-08-27T08:42:50.602Z,7.97
2022-08-27T08:45:44.469Z,8.02
2022-08-27T08:48:18.025Z,6.88
2022-08-27T08:50:55.652Z,7.68
2022-08-27T08:53:31.653Z,7.70
2022-08-27T08:56:02.704Z,7.03
2022-08-27T08:58:52.280Z,6.45
2022-08-27T09:01:21.574Z,5.82
2022-08-27T09:03:58.021Z,4.03
2022-08-27T09:06:42.936Z,4.10
2022-08-27T09:09:22.810Z,5.20
2022-08-27T09:12:00.118Z,6.10
2022-08-27T09:14:33.013Z,4.50
2022-08-27T09:17:01.693Z,4.25
2022-08-27T09:19:29.026Z,4.05
2022-08-27T09:22:17.367Z,4.00
2022-08-27T09:25:21.189Z,3.58
2022-08-27T09:27:51.195Z,2.72
2022-08-27T09:30:30.317Z,2.65
2022-08-27T09:33:04.423Z,3.72
2022-08-27T09:35:46.155Z,3.85
2022-08-27T09:38:33.826Z,2.97
2022-08-27T09:41:07.920Z,2.10
2022-08-27T09:43:36.940Z,1.90
2022-08-27T09:46:21.690Z,2.08
2022-08-27T09:48:52.211Z,1.40
2022-08-27T09:51:27.295Z,1.00
2022-08-27T09:54:00.248Z,1.40
2022-08-27T09:56:31.657Z,1.15
2022-08-27T09:59:10.461Z,1.67
2022-08-27T10:01:54.348Z,1.63
2022-08-27T10:04:52.784Z,1.58
2022-08-27T10:07:22.900Z,0.90
2022-08-27T10:10:18.248Z,1.10
2022-08-27T10:12:48.246Z,0.80
2022-08-27T10:15:54.230Z,1.02
2022-08-27T10:18:33.931Z,0.60
2022-08-27T10:21:19.366Z,1.30
2022-08-27T10:24:13.070Z,1.13
2022-08-27T10:27:01.941Z,0.80
2022-08-27T10:29:40.605Z,1.40
2022-08-27T10:32:39.819Z,1.10
2022-08-27T10:38:47.730Z,0.93
2022-08-27T10:41:44.265Z,1.13
2022-08-27T10:44:42.528Z,1.00
2022-08-27T10:47:41.518Z,1.13
2022-08-27T10:50:42.431Z,0.80
2022-08-27T10:53:51.343Z,0.70
2022-08-27T10:56:43.623Z,0.57
2022-08-27T10:59:46.644Z,1.10
2022-08-27T11:02:39.961Z,0.80
2022-08-27T11:05:16.789Z,0.93
2022-08-27T11:08:12.571Z,1.08
2022-08-27T11:10:45.519Z,1.00
2022-08-27T11:13:20.606Z,1.17
2022-08-27T11:15:53.154Z,0.73
2022-08-27T11:18:43.286Z,0.90
2022-08-27T11:21:46.936Z,1.33
2022-08-27T11:24:39.330Z,1.38
2022-08-27T11:27:08.193Z,0.95
2022-08-27T11:29:44.810Z,1.23
2022-08-27T11:32:26.870Z,0.88
2022-08-27T11:35:02.159Z,0.60
2022-08-27T11:38:06.826Z,0.98
2022-08-27T11:41:04.601Z,0.77
2022-08-27T11:43:35.623Z,0.50
2022-08-27T11:46:07.977Z,0.82
2022-08-27T11:48:40.529Z,1.63
2022-08-27T11:51:10.137Z,1.20
2022-08-27T11:53:52.741Z,0.60
2022-08-27T11:56:43.393Z,0.73
2022-08-27T11:59:22.460Z,0.68
2022-08-27T12:01:52.679Z,0.82
2022-08-27T12:04:40.963Z,0.43
2022-08-27T12:07:30.812Z,1.00
2022-08-27T12:10:10.484Z,0.55
2022-08-27T12:13:17.496Z,0.77
2022-08-27T12:15:55.333Z,0.65
2022-08-27T12:18:53.791Z,0.73
2022-08-27T12:21:39.238Z,0.70
2022-08-27T12:24:21.057Z,0.40
2022-08-27T12:27:01.119Z,0.60
2022-08-27T12:30:00.352Z,0.80
2022-08-27T12:32:47.069Z,0.50
2022-08-27T12:35:21.329Z,0.50
2022-08-27T12:38:12.915Z,0.75
2022-08-27T12:40:49.682Z,0.50
2022-08-27T12:43:26.196Z,0.80
2022-08-27T12:46:01.646Z,0.77
2022-08-27T12:48:32.844Z,0.70
2022-08-27T12:51:33.927Z,1.13
2022-08-27T12:54:30.353Z,0.95
2022-08-27T12:57:18.390Z,0.73
2022-08-27T13:00:14.424Z,0.73
2022-08-27T13:03:07.656Z,1.35
2022-08-27T13:05:44.636Z,0.93
2022-08-27T13:08:22.714Z,0.95
2022-08-27T13:10:50.917Z,0.63
2022-08-27T13:13:21.681Z,1.70
2022-08-27T13:15:55.765Z,0.93
2022-08-27T13:18:24.001Z,1.00
2022-08-27T13:21:18.952Z,0.93
2022-08-27T13:23:54.175Z,0.93
2022-08-27T13:26:24.302Z,0.82
2022-08-27T13:28:52.678Z,1.08
2022-08-27T13:31:22.562Z,0.90
2022-08-27T13:33:50.009Z,0.95
2022-08-27T13:36:34.000Z,0.70
2022-08-27T13:39:03.034Z,0.40
2022-08-27T13:41:35.658Z,0.25
2022-08-27T13:44:35.277Z,0.60
2022-08-27T13:47:05.674Z,0.50
2022-08-27T13:49:40.057Z,0.47
2022-08-27T13:52:23.695Z,0.30
2022-08-27T13:55:19.746Z,0.70
2022-08-27T13:57:52.052Z,0.50
2022-08-27T14:00:27.253Z,0.63
2022-08-27T14:02:55.889Z,0.38
2022-08-27T14:05:23.233Z,0.35
2022-08-27T14:07:56.561Z,0.85
2022-08-27T14:10:37.456Z,0.38
2022-08-27T14:13:43.692Z,0.50
2022-08-27T14:16:31.758Z,0.50
2022-08-27T14:19:09.764Z,0.75
2022-08-27T14:21:40.210Z,0.60
2022-08-27T14:24:08.045Z,1.08
2022-08-27T14:26:35.916Z,0.82
2022-08-27T14:29:02.881Z,1.00
2022-08-27T14:31:38.783Z,1.15
2022-08-27T14:34:08.364Z,0.50
2022-08-27T14:36:38.620Z,1.08
2022-08-27T14:39:06.793Z,0.65
2022-08-27T14:41:34.174Z,0.82
2022-08-27T14:44:03.418Z,0.90
2022-08-27T14:46:36.023Z,0.43
2022-08-27T14:49:14.772Z,0.93
2022-08-27T14:51:45.945Z,0.70
2022-08-27T14:54:13.257Z,0.98
2022-08-27T14:56:41.579Z,1.08
2022-08-27T14:59:27.232Z,0.82
2022-08-27T15:02:12.632Z,0.55
2022-08-27T15:04:39.978Z,1.05
2022-08-27T15:07:09.413Z,0.77
2022-08-27T15:09:36.329Z,0.63
2022-08-27T15:12:03.537Z,1.25
2022-08-27T15:14:33.980Z,0.60
2022-08-27T15:17:01.562Z,0.70
2022-08-27T15:19:37.997Z,0.47
2022-08-27T15:22:16.889Z,0.95
2022-08-27T15:24:48.206Z,1.08
2022-08-27T15:27:15.420Z,0.70
2022-08-27T15:29:43.581Z,0.70
2022-08-27T15:32:35.089Z,1.25
2022-08-27T15:35:12.489Z,0.82
2022-08-27T15:37:41.189Z,0.75
2022-08-27T15:40:09.603Z,0.90
2022-08-27T15:42:56.980Z,0.88
2022-08-27T15:45:25.791Z,0.45
2022-08-27T15:47:56.169Z,0.60
2022-08-27T15:50:25.232Z,0.75
2022-08-27T15:52:57.901Z,0.82
2022-08-27T15:55:28.195Z,0.60
2022-08-27T15:57:55.621Z,0.47
2022-08-27T16:00:23.947Z,0.52
2022-08-27T16:02:51.203Z,0.80
2022-08-27T16:05:19.617Z,0.70
2022-08-27T16:08:05.685Z,0.50
2022-08-27T16:10:33.705Z,0.95
2022-08-27T16:13:00.642Z,0.60
2022-08-27T16:15:27.715Z,0.60
2022-08-27T16:17:59.405Z,0.68
2022-08-27T16:20:26.865Z,1.13
2022-08-27T16:22:54.391Z,0.85
2022-08-27T16:25:23.343Z,0.60
2022-08-27T16:27:51.498Z,0.70
2022-08-27T16:30:19.760Z,0.85
2022-08-27T16:32:52.424Z,1.00
2022-08-27T16:35:20.758Z,0.95
2022-08-27T16:37:47.666Z,1.15
2022-08-27T16:40:15.579Z,0.60
2022-08-27T16:42:46.716Z,0.55
2022-08-27T16:45:16.339Z,0.98
2022-08-27T16:48:01.760Z,0.98
2022-08-27T16:50:35.440Z,1.27
2022-08-27T16:53:10.037Z,0.98
2022-08-27T16:55:37.892Z,0.85
2022-08-27T16:58:09.207Z,0.82
2022-08-27T17:00:39.019Z,0.80
2022-08-27T17:03:07.738Z,0.63
2022-08-27T17:05:53.701Z,0.80
2022-08-27T17:08:26.867Z,0.82
2022-08-27T17:10:56.534Z,0.98
2022-08-27T17:13:28.287Z,0.65
2022-08-27T17:16:14.259Z,0.85
2022-08-27T17:18:41.485Z,0.30
2022-08-27T17:21:08.457Z,0.68
2022-08-27T17:23:39.025Z,0.57
2022-08-27T17:26:09.876Z,0.57
2022-08-27T17:28:41.013Z,0.95
2022-08-27T17:31:10.589Z,1.25
2022-08-27T17:33:47.529Z,1.17
2022-08-27T17:36:15.233Z,0.70
2022-08-27T17:38:42.581Z,1.00
2022-08-27T17:41:13.992Z,1.48
2022-08-27T17:43:42.017Z,1.23
2022-08-27T17:46:09.657Z,1.23
2022-08-27T17:48:36.588Z,1.17
2022-08-27T17:51:04.108Z,1.10
2022-08-27T17:53:31.269Z,1.17
2022-08-27T17:55:58.150Z,1.20
2022-08-27T17:58:25.125Z,1.58
2022-08-27T18:00:53.042Z,1.25
2022-08-27T18:03:38.514Z,1.50
2022-08-27T18:06:12.710Z,1.98
2022-08-27T18:08:39.692Z,1.67
2022-08-27T18:11:06.965Z,1.33
2022-08-27T18:13:37.279Z,1.30
2022-08-27T18:16:05.325Z,1.05
2022-08-27T18:18:32.332Z,1.23
2022-08-27T18:20:59.365Z,1.27
2022-08-27T18:23:26.246Z,1.35
2022-08-27T18:25:53.320Z,1.35
2022-08-27T18:28:22.235Z,1.40
2022-08-27T18:30:50.655Z,1.00
2022-08-27T18:33:17.907Z,1.30
2022-08-27T18:35:44.849Z,1.40
2022-08-27T18:38:12.572Z,1.23
2022-08-27T18:40:46.889Z,1.20
2022-08-27T18:43:15.767Z,1.00
2022-08-27T18:45:42.746Z,1.33
2022-08-27T18:48:17.073Z,0.90
2022-08-27T18:50:48.871Z,1.42
2022-08-27T18:53:19.884Z,0.95
2022-08-27T18:55:48.028Z,2.00
2022-08-27T18:58:15.578Z,1.00
2022-08-27T19:00:46.112Z,1.02
2022-08-27T19:03:17.873Z,0.80
2022-08-27T19:05:44.780Z,1.17
2022-08-27T19:08:13.508Z,1.33
2022-08-27T19:10:40.493Z,1.05
2022-08-27T19:13:07.422Z,0.90
2022-08-27T19:15:53.149Z,0.88
2022-08-27T19:18:21.760Z,1.45
2022-08-27T19:20:48.644Z,1.33
2022-08-27T19:23:15.577Z,1.55
2022-08-27T19:25:50.209Z,1.65
2022-08-27T19:28:24.585Z,1.33
2022-08-27T19:30:51.504Z,1.70
2022-08-27T19:33:18.475Z,0.90
2022-08-27T19:35:45.499Z,0.90
2022-08-27T19:38:13.871Z,0.80
2022-08-27T19:40:41.829Z,1.70
2022-08-27T19:43:08.942Z,1.10
2022-08-27T19:45:39.828Z,1.50
2022-08-27T19:48:08.088Z,0.85
2022-08-27T19:50:35.269Z,1.13
2022-08-27T19:53:02.247Z,0.75
2022-08-27T19:55:29.454Z,1.67
2022-08-27T19:57:56.425Z,1.10
2022-08-27T20:00:27.820Z,1.20
2022-08-27T20:02:55.685Z,1.52
2022-08-27T20:05:23.174Z,1.10
2022-08-27T20:07:52.059Z,3.42
2022-08-27T20:10:21.717Z,1.60
2022-08-27T20:12:49.406Z,1.58
2022-08-27T20:15:16.938Z,1.35
2022-08-27T20:17:45.166Z,2.50
2022-08-27T20:20:12.976Z,1.45
2022-08-27T20:22:40.970Z,2.05
2022-08-27T20:25:45.538Z,1.50
2022-08-27T20:28:37.922Z,1.88
2022-08-27T20:31:00.050Z,2.40
2022-08-27T20:33:27.160Z,2.17
2022-08-27T20:35:56.673Z,1.95
2022-08-27T20:38:23.663Z,2.55
2022-08-27T20:40:51.482Z,2.10
2022-08-27T20:43:18.876Z,2.50
2022-08-27T20:46:05.208Z,3.83
2022-08-27T20:48:32.237Z,4.55
2022-08-27T20:50:59.289Z,3.40
2022-08-27T20:53:26.924Z,4.35
2022-08-27T20:55:56.670Z,4.40
2022-08-27T20:58:43.199Z,5.03
2022-08-27T21:01:11.329Z,4.18
2022-08-27T21:03:38.423Z,4.00
2022-08-27T21:06:06.317Z,5.25
2022-08-27T21:08:33.228Z,4.82
2022-08-27T21:11:00.818Z,3.55
2022-08-27T21:13:29.199Z,3.22
2022-08-27T21:15:56.695Z,3.60
2022-08-27T21:21:09.269Z,3.10
2022-08-27T21:23:38.538Z,3.92
2022-08-27T21:26:10.047Z,4.13
2022-08-27T21:28:39.143Z,5.10
2022-08-27T21:31:06.796Z,5.78
2022-08-27T21:33:36.098Z,5.22
2022-08-27T21:36:10.129Z,6.38
2022-08-27T21:38:39.208Z,5.72
2022-08-27T21:41:06.602Z,5.65
2022-08-27T21:43:34.919Z,5.22
2022-08-27T21:46:20.580Z,4.95
2022-08-27T21:48:50.069Z,6.10
2022-08-27T21:51:26.967Z,4.70
2022-08-27T21:53:53.814Z,5.00
2022-08-27T21:56:21.490Z,5.60
2022-08-27T21:58:48.283Z,5.10
2022-08-27T22:01:15.369Z,5.43
2022-08-27T22:03:46.937Z,5.05
2022-08-27T22:06:14.965Z,5.15
2022-08-27T22:08:43.648Z,5.50
2022-08-27T22:11:11.799Z,5.13
2022-08-27T22:13:39.566Z,3.33
2022-08-27T22:16:07.191Z,2.75
2022-08-27T22:18:34.100Z,3.28
2022-08-27T22:21:01.267Z,3.67
2022-08-27T22:23:28.214Z,2.53
2022-08-27T22:26:13.935Z,3.28
2022-08-27T22:28:41.610Z,3.38
2022-08-27T22:31:08.527Z,3.15
2022-08-27T22:33:35.582Z,4.13
2022-08-27T22:36:21.414Z,4.38
2022-08-27T22:38:48.316Z,4.70
2022-08-27T22:41:18.296Z,3.58
2022-08-27T22:43:45.764Z,4.35
2022-08-27T22:46:13.026Z,4.55
2022-08-27T22:48:39.885Z,6.78
2022-08-27T22:51:07.189Z,5.13
2022-08-27T22:53:36.493Z,5.60
2022-08-27T22:56:06.324Z,7.70
2022-08-27T22:58:33.243Z,7.85
2022-08-27T23:01:00.256Z,7.93
2022-08-27T23:03:27.157Z,7.65
2022-08-27T23:05:54.967Z,5.25
2022-08-27T23:08:23.072Z,4.93
2022-08-27T23:14:35.604Z,4.90
2022-08-27T23:17:03.315Z,5.40
2022-08-27T23:19:30.989Z,4.75
2022-08-27T23:21:58.792Z,5.63
2022-08-27T23:24:25.930Z,5.10
2022-08-27T23:27:11.626Z,5.53
2022-08-27T23:29:38.666Z,5.93
2022-08-27T23:32:05.636Z,5.32
2022-08-27T23:34:33.247Z,4.32
2022-08-27T23:37:00.141Z,5.88
2022-08-27T23:39:27.013Z,6.18
2022-08-27T23:41:53.904Z,5.03
2022-08-27T23:44:20.734Z,5.95
2022-08-27T23:46:48.586Z,6.57
2022-08-27T23:49:17.477Z,6.75
2022-08-27T23:51:44.339Z,7.40
2022-08-27T23:54:30.283Z,7.07
2022-08-27T23:56:57.282Z,6.65
2022-08-27T23:59:27.583Z,7.82
